createdAt,value
2023-01-05T00:01:22.019Z,97800.06
2023-01-05T00:03:48.867Z,97819.28
2023-01-05T00:06:17.931Z,97795.88
2023-01-05T00:08:45.198Z,97796.59
2023-01-05T00:11:36.594Z,97798.63
2023-01-05T00:14:21.796Z,97806.28
2023-01-05T00:17:07.860Z,97819.88
2023-01-05T00:19:54.079Z,97804.69
2023-01-05T00:22:31.932Z,97806.56
2023-01-05T00:25:02.238Z,97803.81
2023-01-05T00:27:31.979Z,97811.47
2023-01-05T00:29:59.329Z,97795.72
2023-01-05T00:32:27.262Z,97786.75
2023-01-05T00:34:58.204Z,97781.28
2023-01-05T00:37:27.901Z,97786.63
2023-01-05T00:39:54.683Z,97789.50
2023-01-05T00:42:21.499Z,97787.34
2023-01-05T00:44:48.259Z,97789.50
2023-01-05T00:47:14.922Z,97787.34
2023-01-05T00:49:41.733Z,97776.38
2023-01-05T00:52:08.755Z,97798.34
2023-01-05T00:54:35.659Z,97778.41
2023-01-05T00:57:02.738Z,97782.59
2023-01-05T00:59:29.562Z,97782.59
2023-01-05T01:01:56.461Z,97781.88
2023-01-05T01:04:23.583Z,97781.28
2023-01-05T01:06:50.291Z,97770.28
2023-01-05T01:09:18.569Z,97777.81
2023-01-05T01:11:46.148Z,97778.53
2023-01-05T01:14:13.922Z,97763.38
2023-01-05T01:16:42.132Z,97752.97
2023-01-05T01:19:12.477Z,97760.63
2023-01-05T01:21:40.529Z,97762.06
2023-01-05T01:24:07.491Z,97751.81
2023-01-05T01:26:34.523Z,97756.56
2023-01-05T01:29:01.632Z,97765.41
2023-01-05T01:31:28.323Z,97757.16
2023-01-05T01:33:55.089Z,97759.31
2023-01-05T01:36:21.815Z,97754.41
2023-01-05T01:38:48.596Z,97756.44
2023-01-05T01:41:15.601Z,97753.69
2023-01-05T01:43:49.554Z,97753.56
2023-01-05T01:46:19.706Z,97758.47
2023-01-05T01:49:05.195Z,97765.97
2023-01-05T01:51:38.083Z,97772.19
2023-01-05T01:54:07.743Z,97746.75
2023-01-05T01:56:47.703Z,97763.78
2023-01-05T01:59:17.429Z,97750.22
2023-01-05T02:01:44.787Z,97739.97
2023-01-05T02:04:12.012Z,97764.66
2023-01-05T02:06:39.996Z,97761.34
2023-01-05T02:09:06.905Z,97751.66
2023-01-05T02:11:43.102Z,97763.25
2023-01-05T02:14:32.725Z,97757.88
2023-01-05T02:17:38.965Z,97749.66
2023-01-05T02:20:39.287Z,97728.28
2023-01-05T02:23:15.286Z,97760.63
2023-01-05T02:26:12.874Z,97748.19
2023-01-05T02:28:50.044Z,97753.69
2023-01-05T02:31:36.783Z,97751.53
2023-01-05T02:34:14.742Z,97740.69
2023-01-05T02:36:54.157Z,97749.66
2023-01-05T02:39:32.527Z,97744.16
2023-01-05T02:42:05.846Z,97744.16
2023-01-05T02:44:34.198Z,97740.81
2023-01-05T02:47:03.671Z,97731.16
2023-01-05T02:49:33.683Z,97734.78
2023-01-05T02:52:01.868Z,97730.72
2023-01-05T02:54:42.138Z,97740.25
2023-01-05T02:57:16.896Z,97724.50
2023-01-05T02:59:51.832Z,97723.78
2023-01-05T03:02:22.064Z,97725.22
2023-01-05T03:04:56.079Z,97717.00
2023-01-05T03:07:26.925Z,97721.19
2023-01-05T03:09:54.767Z,97716.28
2023-01-05T03:12:45.061Z,97721.75
2023-01-05T03:15:18.670Z,97714.78
2023-01-05T03:17:51.619Z,97700.66
2023-01-05T03:20:23.338Z,97715.56
2023-01-05T03:23:14.402Z,97715.56
2023-01-05T03:25:59.765Z,97708.75
2023-01-05T03:28:59.071Z,97706.59
2023-01-05T03:31:56.910Z,97720.88
2023-01-05T03:34:54.519Z,97711.38
2023-01-05T03:37:27.629Z,97699.81
2023-01-05T03:39:54.979Z,97697.78
2023-01-05T03:42:22.958Z,97704.72
2023-01-05T03:44:50.308Z,97692.41
2023-01-05T03:47:18.123Z,97713.06
2023-01-05T03:49:45.721Z,97710.31
2023-01-05T03:52:12.908Z,97711.06
2023-01-05T03:54:41.921Z,97711.78
2023-01-05T03:57:08.694Z,97719.44
2023-01-05T03:59:35.473Z,97713.94
2023-01-05T04:02:04.794Z,97724.22
2023-01-05T04:04:32.585Z,97720.03
2023-01-05T04:07:01.169Z,97718.72
2023-01-05T04:09:40.767Z,97716.69
2023-01-05T04:12:14.271Z,97713.94
2023-01-05T04:14:44.389Z,97713.22
2023-01-05T04:17:11.607Z,97723.50
2023-01-05T04:19:39.178Z,97726.97
2023-01-05T04:22:05.914Z,97736.63
2023-01-05T04:24:33.465Z,97726.97
2023-01-05T04:27:03.284Z,97729.84
2023-01-05T04:29:30.292Z,97724.34
2023-01-05T04:31:59.000Z,97732.56
2023-01-05T04:34:25.981Z,97736.03
2023-01-05T04:36:55.619Z,97734.75
2023-01-05T04:39:22.577Z,97723.03
2023-01-05T04:41:50.623Z,97729.28
2023-01-05T04:44:19.981Z,97736.03
2023-01-05T04:46:48.314Z,97745.00
2023-01-05T04:49:16.294Z,97742.13
2023-01-05T04:51:43.009Z,97746.31
2023-01-05T04:54:10.044Z,97739.50
2023-01-05T04:56:37.639Z,97749.78
2023-01-05T04:59:05.968Z,97747.75
2023-01-05T05:01:34.766Z,97745.00
2023-01-05T05:04:02.456Z,97747.75
2023-01-05T05:06:29.754Z,97747.75
2023-01-05T05:08:56.557Z,97743.00
2023-01-05T05:11:25.626Z,97748.50
2023-01-05T05:13:52.397Z,97750.50
2023-01-05T05:16:19.234Z,97748.50
2023-01-05T05:18:48.509Z,97749.22
2023-01-05T05:21:23.151Z,97760.19
2023-01-05T05:23:49.974Z,97767.72
2023-01-05T05:26:16.777Z,97760.19
2023-01-05T05:28:45.935Z,97760.31
2023-01-05T05:31:12.648Z,97769.88
2023-01-05T05:33:39.468Z,97762.94
2023-01-05T05:36:06.662Z,97780.13
2023-01-05T05:38:33.489Z,97770.44
2023-01-05T05:41:00.193Z,97776.66
2023-01-05T05:43:27.138Z,97782.16
2023-01-05T05:45:53.837Z,97784.19
2023-01-05T05:48:20.673Z,97771.91
2023-01-05T05:50:47.551Z,97770.44
2023-01-05T05:53:14.518Z,97773.91
2023-01-05T05:55:41.317Z,97770.44
2023-01-05T05:58:08.934Z,97775.94
2023-01-05T06:00:35.634Z,97781.44
2023-01-05T06:03:02.561Z,97790.94
2023-01-05T06:05:29.374Z,97798.47
2023-01-05T06:07:56.137Z,97790.94
2023-01-05T06:10:23.076Z,97786.19
2023-01-05T06:12:50.041Z,97796.59
2023-01-05T06:15:16.838Z,97795.16
2023-01-05T06:17:45.785Z,97798.63
2023-01-05T06:20:12.677Z,97807.59
2023-01-05T06:22:39.405Z,97799.19
2023-01-05T06:25:06.450Z,97816.38
2023-01-05T06:27:33.026Z,97819.13
2023-01-05T06:29:59.763Z,97822.44
2023-01-05T06:32:26.421Z,97825.19
2023-01-05T06:34:53.071Z,97823.56
2023-01-05T06:37:21.737Z,97820.38
2023-01-05T06:39:48.521Z,97824.69
2023-01-05T06:42:18.932Z,97825.28
2023-01-05T06:44:48.324Z,97836.63
2023-01-05T06:47:14.881Z,97834.13
2023-01-05T06:49:41.495Z,97832.13
2023-01-05T06:52:14.161Z,97842.84
2023-01-05T06:54:42.877Z,97842.81
2023-01-05T06:57:09.525Z,97844.34
2023-01-05T06:59:36.159Z,97856.03
2023-01-05T07:02:02.820Z,97849.31
2023-01-05T07:04:29.549Z,97838.78
2023-01-05T07:06:56.155Z,97849.75
2023-01-05T07:09:22.735Z,97864.56
2023-01-05T07:11:49.272Z,97871.75
2023-01-05T07:14:16.126Z,97868.44
2023-01-05T07:16:42.738Z,97868.44
2023-01-05T07:19:10.255Z,97869.97
2023-01-05T07:21:36.884Z,97878.19
2023-01-05T07:24:03.930Z,97877.31
2023-01-05T07:26:30.633Z,97876.59
2023-01-05T07:28:58.593Z,97877.16
2023-01-05T07:31:25.277Z,97883.31
2023-01-05T07:33:51.864Z,97880.00
2023-01-05T07:36:18.587Z,97893.44
2023-01-05T07:38:45.195Z,97896.75
2023-01-05T07:41:11.773Z,97905.81
2023-01-05T07:43:38.318Z,97901.91
2023-01-05T07:46:05.246Z,97893.94
2023-01-05T07:48:31.875Z,97895.75
2023-01-05T07:51:02.297Z,97900.13
2023-01-05T07:53:36.761Z,97910.94
2023-01-05T07:56:09.195Z,97910.75
2023-01-05T07:58:35.983Z,97918.09
2023-01-05T08:01:06.252Z,97908.72
2023-01-05T08:03:33.212Z,97923.06
2023-01-05T08:06:03.491Z,97924.38
2023-01-05T08:08:30.145Z,97918.31
2023-01-05T08:10:56.975Z,97921.22
2023-01-05T08:13:42.065Z,97926.16
2023-01-05T08:16:08.884Z,97927.75
2023-01-05T08:18:35.480Z,97929.91
2023-01-05T08:21:04.453Z,97924.66
2023-01-05T08:23:31.714Z,97933.63
2023-01-05T08:26:02.805Z,97916.78
2023-01-05T08:28:35.230Z,97926.06
2023-01-05T08:31:06.710Z,97925.22
2023-01-05T08:33:33.783Z,97924.59
2023-01-05T08:36:00.349Z,97937.72
2023-01-05T08:38:27.095Z,97930.53
2023-01-05T08:40:53.832Z,97926.81
2023-01-05T08:43:20.675Z,97931.19
2023-01-05T08:45:48.162Z,97928.75
2023-01-05T08:48:14.838Z,97940.19
2023-01-05T08:50:41.391Z,97940.34
2023-01-05T08:53:08.027Z,97937.91
2023-01-05T08:55:34.587Z,97928.38
2023-01-05T08:58:01.219Z,97944.59
2023-01-05T09:00:27.992Z,97947.31
2023-01-05T09:02:54.736Z,97943.28
2023-01-05T09:05:21.320Z,97935.63
2023-01-05T09:07:48.116Z,97937.66
2023-01-05T09:10:14.927Z,97937.44
2023-01-05T09:12:41.626Z,97943.84
2023-01-05T09:15:08.323Z,97944.94
2023-01-05T09:17:38.416Z,97939.75
2023-01-05T09:20:05.781Z,97945.13
2023-01-05T09:22:36.184Z,97949.88
2023-01-05T09:25:08.545Z,97953.81
2023-01-05T09:27:44.457Z,97950.66
2023-01-05T09:30:17.907Z,97954.84
2023-01-05T09:32:47.969Z,97964.84
2023-01-05T09:35:19.691Z,97968.94
2023-01-05T09:37:47.196Z,97967.94
2023-01-05T09:40:18.242Z,97965.38
2023-01-05T09:42:50.014Z,97962.38
2023-01-05T09:45:26.846Z,97956.44
2023-01-05T09:47:55.612Z,97967.41
2023-01-05T09:50:25.826Z,97961.78
2023-01-05T09:52:53.565Z,97968.91
2023-01-05T09:55:21.173Z,97974.13
2023-01-05T09:57:54.019Z,97967.47
2023-01-05T10:00:21.632Z,97975.28
2023-01-05T10:02:53.144Z,97986.72
2023-01-05T10:05:19.903Z,97985.13
2023-01-05T10:07:49.503Z,97984.53
2023-01-05T10:10:34.901Z,97982.84
2023-01-05T10:13:05.528Z,97984.13
2023-01-05T10:16:01.685Z,97984.72
2023-01-05T10:18:28.687Z,97974.88
2023-01-05T10:20:55.214Z,97982.22
2023-01-05T10:23:24.369Z,97986.13
2023-01-05T10:25:56.663Z,97995.44
2023-01-05T10:28:56.724Z,97987.28
2023-01-05T10:31:35.289Z,97981.94
2023-01-05T10:34:08.915Z,97984.50
2023-01-05T10:37:11.668Z,97975.09
2023-01-05T10:39:52.460Z,97970.09
2023-01-05T10:42:26.248Z,97969.13
2023-01-05T10:45:02.558Z,97970.09
2023-01-05T10:47:36.210Z,97973.44
2023-01-05T10:50:03.083Z,97968.72
2023-01-05T10:52:29.687Z,97978.88
2023-01-05T10:54:57.810Z,97967.66
2023-01-05T10:57:35.844Z,97980.44
2023-01-05T11:00:15.527Z,97973.69
2023-01-05T11:02:43.340Z,97976.25
2023-01-05T11:05:09.952Z,97970.38
2023-01-05T11:07:53.117Z,97962.84
2023-01-05T11:10:29.092Z,97968.88
2023-01-05T11:12:59.224Z,97968.78
2023-01-05T11:15:25.826Z,97961.84
2023-01-05T11:17:52.514Z,97967.06
2023-01-05T11:20:19.291Z,97965.03
2023-01-05T11:22:48.363Z,97957.81
2023-01-05T11:25:36.043Z,97955.22
2023-01-05T11:28:07.118Z,97962.88
2023-01-05T11:30:35.050Z,97955.94
2023-01-05T11:33:01.920Z,97957.41
2023-01-05T11:35:31.953Z,97947.44
2023-01-05T11:37:58.736Z,97952.50
2023-01-05T11:40:30.261Z,97948.63
2023-01-05T11:42:57.380Z,97951.69
2023-01-05T11:45:28.693Z,97947.19
2023-01-05T11:47:57.500Z,97942.56
2023-01-05T11:50:47.384Z,97944.16
2023-01-05T11:53:25.085Z,97946.03
2023-01-05T11:56:12.022Z,97946.47
2023-01-05T11:58:43.367Z,97941.53
2023-01-05T12:01:16.399Z,97937.78
2023-01-05T12:04:02.049Z,97935.34
2023-01-05T12:06:31.980Z,97933.91
2023-01-05T12:09:01.564Z,97934.38
2023-01-05T12:11:28.468Z,97927.44
2023-01-05T12:14:00.721Z,97926.53
2023-01-05T12:16:27.482Z,97928.00
2023-01-05T12:18:57.066Z,97922.78
2023-01-05T12:21:31.422Z,97927.44
2023-01-05T12:24:01.935Z,97926.00
2023-01-05T12:26:29.839Z,97928.16
2023-01-05T12:30:24.975Z,97926.25
2023-01-05T12:34:53.736Z,97920.41
2023-01-05T12:37:20.300Z,97916.31
2023-01-05T12:39:54.312Z,97905.41
2023-01-05T12:42:36.441Z,97916.09
2023-01-05T12:45:29.662Z,97914.78
2023-01-05T12:48:05.601Z,97915.69
2023-01-05T12:50:34.312Z,97912.25
2023-01-05T12:53:21.181Z,97912.38
2023-01-05T12:55:52.707Z,97907.38
2023-01-05T12:58:53.771Z,97913.31
2023-01-05T13:01:23.511Z,97904.94
2023-01-05T13:03:57.952Z,97908.53
2023-01-05T13:06:24.761Z,97905.25
2023-01-05T13:08:53.180Z,97906.97
2023-01-05T13:11:22.039Z,97909.16
2023-01-05T13:13:49.907Z,97909.91
2023-01-05T13:16:23.248Z,97911.06
2023-01-05T13:19:10.291Z,97908.31
2023-01-05T13:21:37.598Z,97902.38
2023-01-05T13:24:06.324Z,97902.53
2023-01-05T13:26:37.938Z,97901.94
2023-01-05T13:29:05.041Z,97906.00
2023-01-05T13:31:34.692Z,97910.63
2023-01-05T13:34:19.942Z,97899.06
2023-01-05T13:36:52.561Z,97905.44
2023-01-05T13:39:39.124Z,97903.41
2023-01-05T13:42:08.183Z,97905.75
2023-01-05T13:44:40.896Z,97908.06
2023-01-05T13:47:16.199Z,97905.31
2023-01-05T13:49:48.703Z,97903.00
2023-01-05T13:52:17.913Z,97915.41
2023-01-05T13:55:02.007Z,97912.38
2023-01-05T13:57:30.671Z,97909.16
2023-01-05T14:00:06.538Z,97903.53
2023-01-05T14:02:43.995Z,97908.16
2023-01-05T14:05:36.986Z,97909.31
2023-01-05T14:08:04.547Z,97904.41
2023-01-05T14:10:32.619Z,97902.94
2023-01-05T14:12:59.413Z,97909.31
2023-01-05T14:15:32.174Z,97897.75
2023-01-05T14:17:59.341Z,97898.03
2023-01-05T14:20:30.052Z,97895.72
2023-01-05T14:22:56.965Z,97904.53
2023-01-05T14:25:38.886Z,97890.38
2023-01-05T14:28:24.525Z,97893.72
2023-01-05T14:30:51.392Z,97891.69
2023-01-05T14:33:18.869Z,97892.53
2023-01-05T14:35:45.739Z,97889.97
2023-01-05T14:38:21.345Z,97896.91
2023-01-05T14:40:52.931Z,97893.13
2023-01-05T14:43:19.488Z,97889.78
2023-01-05T14:45:46.353Z,97902.97
2023-01-05T14:48:27.414Z,97904.41
2023-01-05T14:51:06.830Z,97901.97
2023-01-05T14:53:37.928Z,97909.91
2023-01-05T14:56:04.540Z,97913.94
2023-01-05T14:58:37.373Z,97906.97
2023-01-05T15:01:16.641Z,97911.03
2023-01-05T15:03:52.932Z,97912.47
2023-01-05T15:06:22.054Z,97913.66
2023-01-05T15:09:01.244Z,97908.56
2023-01-05T15:11:27.837Z,97921.72
2023-01-05T15:14:31.911Z,97917.53
2023-01-05T15:17:17.123Z,97918.69
2023-01-05T15:19:46.721Z,97921.41
2023-01-05T15:22:45.600Z,97920.06
2023-01-05T15:25:16.167Z,97917.75
2023-01-05T15:27:49.407Z,97913.56
2023-01-05T15:30:16.037Z,97913.56
2023-01-05T15:32:43.684Z,97911.09
2023-01-05T15:35:20.979Z,97910.09
2023-01-05T15:37:48.770Z,97913.72
2023-01-05T15:40:15.392Z,97909.53
2023-01-05T15:42:43.283Z,97919.78
2023-01-05T15:45:16.670Z,97918.88
2023-01-05T15:47:43.336Z,97915.84
2023-01-05T15:50:16.344Z,97908.75
2023-01-05T15:52:43.177Z,97915.69
2023-01-05T15:55:12.845Z,97918.84
2023-01-05T15:57:39.581Z,97918.13
2023-01-05T16:00:20.252Z,97915.38
2023-01-05T16:02:46.891Z,97919.44
2023-01-05T16:05:18.162Z,97911.34
2023-01-05T16:07:46.241Z,97920.59
2023-01-05T16:10:16.767Z,97916.41
2023-01-05T16:12:43.383Z,97917.75
2023-01-05T16:15:11.718Z,97920.06
2023-01-05T16:17:39.165Z,97916.47
2023-01-05T16:20:11.895Z,97923.13
2023-01-05T16:22:46.971Z,97923.56
2023-01-05T16:25:21.239Z,97924.03
2023-01-05T16:27:54.121Z,97916.81
2023-01-05T16:30:27.177Z,97908.28
2023-01-05T16:33:00.031Z,97915.53
2023-01-05T16:35:30.382Z,97913.78
2023-01-05T16:38:04.390Z,97918.88
2023-01-05T16:40:31.036Z,97910.91
2023-01-05T16:42:57.560Z,97907.72
2023-01-05T16:45:25.088Z,97911.34
2023-01-05T16:47:54.704Z,97909.47
2023-01-05T16:50:21.500Z,97908.34
2023-01-05T16:52:51.218Z,97900.38
2023-01-05T16:55:29.189Z,97901.13
2023-01-05T16:57:56.750Z,97896.50
2023-01-05T17:00:26.834Z,97892.44
2023-01-05T17:02:54.318Z,97894.03
2023-01-05T17:05:24.800Z,97897.50
2023-01-05T17:08:28.085Z,97892.72
2023-01-05T17:10:55.033Z,97888.25
2023-01-05T17:13:22.397Z,97892.28
2023-01-05T17:15:50.195Z,97891.72
2023-01-05T17:18:18.246Z,97885.50
2023-01-05T17:20:45.626Z,97887.66
2023-01-05T17:23:21.950Z,97887.06
2023-01-05T17:25:48.650Z,97889.97
2023-01-05T17:28:15.467Z,97882.44
2023-01-05T17:30:42.437Z,97895.59
2023-01-05T17:33:09.185Z,97890.09
2023-01-05T17:35:36.074Z,97886.78
2023-01-05T17:38:04.004Z,97884.78
2023-01-05T17:40:31.168Z,97877.97
2023-01-05T17:42:57.787Z,97879.41
2023-01-05T17:45:27.190Z,97881.56
2023-01-05T17:47:54.159Z,97882.16
2023-01-05T17:50:27.833Z,97881.56
2023-01-05T17:52:54.795Z,97891.41
2023-01-05T17:55:21.535Z,97887.78
2023-01-05T17:57:48.377Z,97883.75
2023-01-05T18:00:22.746Z,97878.25
2023-01-05T18:02:50.523Z,97883.75
2023-01-05T18:05:17.362Z,97886.50
2023-01-05T18:07:44.029Z,97880.41
2023-01-05T18:10:12.957Z,97885.19
2023-01-05T18:15:11.607Z,97883.75
2023-01-05T18:17:38.409Z,97882.44
2023-01-05T18:20:05.752Z,97877.66
2023-01-05T18:22:32.676Z,97874.91
2023-01-05T18:24:59.922Z,97867.25
2023-01-05T18:27:26.459Z,97866.66
2023-01-05T18:29:53.645Z,97870.13
2023-01-05T18:32:20.258Z,97856.41
2023-01-05T18:34:46.986Z,97868.84
2023-01-05T18:37:21.564Z,97863.34
2023-01-05T18:39:48.600Z,97864.06
2023-01-05T18:42:15.278Z,97859.88
2023-01-05T18:44:41.914Z,97865.38
2023-01-05T18:47:08.817Z,97858.44
2023-01-05T18:49:35.462Z,97864.66
2023-01-05T18:52:02.054Z,97858.56
2023-01-05T18:54:28.691Z,97860.59
2023-01-05T18:56:55.264Z,97860.59
2023-01-05T18:59:21.939Z,97862.63
2023-01-05T19:01:48.494Z,97860.59
2023-01-05T19:04:15.870Z,97861.91
2023-01-05T19:06:42.589Z,97863.34
2023-01-05T19:09:09.954Z,97866.09
2023-01-05T19:11:37.075Z,97866.09
2023-01-05T19:14:08.764Z,97860.59
2023-01-05T19:16:39.259Z,97867.53
2023-01-05T19:19:11.083Z,97868.97
2023-01-05T19:21:38.615Z,97865.50
2023-01-05T19:24:05.990Z,97869.72
2023-01-05T19:26:33.018Z,97864.94
2023-01-05T19:29:00.156Z,97871.16
2023-01-05T19:31:28.029Z,97856.09
2023-01-05T19:33:55.199Z,97856.09
2023-01-05T19:36:22.489Z,97861.59
2023-01-05T19:38:49.319Z,97865.06
2023-01-05T19:41:27.405Z,97854.06
2023-01-05T19:43:54.904Z,97864.47
2023-01-05T19:46:22.071Z,97857.53
2023-01-05T19:48:48.928Z,97854.94
2023-01-05T19:51:16.251Z,97852.91
2023-01-05T19:53:43.342Z,97848.13
2023-01-05T19:56:13.529Z,97846.09
2023-01-05T19:58:40.405Z,97849.56
2023-01-05T20:01:16.574Z,97846.09
2023-01-05T20:03:49.246Z,97845.38
2023-01-05T20:06:18.127Z,97844.66
2023-01-05T20:08:45.307Z,97851.44
2023-01-05T20:11:12.929Z,97846.81
2023-01-05T20:13:39.920Z,97841.19
2023-01-05T20:16:11.633Z,97846.81
2023-01-05T20:18:38.912Z,97840.03
2023-01-05T20:21:06.131Z,97838.59
2023-01-05T20:23:33.576Z,97839.31
2023-01-05T20:26:03.927Z,97840.03
2023-01-05T20:28:30.524Z,97843.50
2023-01-05T20:30:57.189Z,97844.94
2023-01-05T20:33:23.932Z,97848.41
2023-01-05T20:35:50.451Z,97847.13
2023-01-05T20:38:17.084Z,97839.59
2023-01-05T20:40:43.683Z,97839.59
2023-01-05T20:43:10.426Z,97846.53
2023-01-05T20:45:37.001Z,97843.06
2023-01-05T20:48:03.738Z,97843.78
2023-01-05T20:50:30.260Z,97836.25
2023-01-05T20:52:56.912Z,97834.94
2023-01-05T20:55:23.603Z,97831.63
2023-01-05T20:57:50.900Z,97832.34
2023-01-05T21:00:18.256Z,97833.78
2023-01-05T21:02:47.174Z,97826.97
2023-01-05T21:05:15.157Z,97835.22
2023-01-05T21:07:41.825Z,97826.97
2023-01-05T21:10:08.772Z,97833.91
2023-01-05T21:12:35.381Z,97837.38
2023-01-05T21:15:01.998Z,97830.44
2023-01-05T21:17:28.797Z,97842.88
2023-01-05T21:19:55.392Z,97836.66
2023-01-05T21:22:22.072Z,97849.81
2023-01-05T21:24:48.708Z,97836.66
2023-01-05T21:27:15.313Z,97839.56
2023-01-05T21:29:41.840Z,97834.06
2023-01-05T21:32:08.524Z,97845.19
2023-01-05T21:34:35.126Z,97841.84
2023-01-05T21:37:01.753Z,97835.63
2023-01-05T21:39:28.629Z,97832.88
2023-01-05T21:42:13.837Z,97827.38
2023-01-05T21:44:40.720Z,97819.13
2023-01-05T21:47:07.469Z,97817.09
2023-01-05T21:49:34.553Z,97817.81
2023-01-05T21:52:19.681Z,97818.53
2023-01-05T21:55:04.970Z,97817.97
2023-01-05T21:57:37.494Z,97806.25
2023-01-05T22:00:06.186Z,97817.25
2023-01-05T22:02:37.490Z,97809.56
2023-01-05T22:05:04.306Z,97802.03
2023-01-05T22:07:30.885Z,97806.25
2023-01-05T22:09:57.539Z,97798.72
2023-01-05T22:12:24.096Z,97806.38
2023-01-05T22:14:50.756Z,97806.38
2023-01-05T22:17:17.323Z,97809.25
2023-01-05T22:19:43.983Z,97809.25
2023-01-05T22:22:10.524Z,97801.00
2023-01-05T22:24:38.460Z,97807.25
2023-01-05T22:27:05.092Z,97806.66
2023-01-05T22:29:31.732Z,97804.50
2023-01-05T22:31:59.133Z,97802.47
2023-01-05T22:34:27.130Z,97799.72
2023-01-05T22:36:53.883Z,97801.00
2023-01-05T22:39:20.580Z,97806.66
2023-01-05T22:41:48.553Z,97801.16
2023-01-05T22:44:15.189Z,97796.38
2023-01-05T22:46:41.815Z,97798.41
2023-01-05T22:49:09.199Z,97801.88
2023-01-05T22:51:36.914Z,97797.09
2023-01-05T22:54:04.076Z,97795.78
2023-01-05T22:56:31.896Z,97794.34
2023-01-05T22:58:58.726Z,97789.56
2023-01-05T23:01:26.925Z,97782.03
2023-01-05T23:03:54.197Z,97784.06
2023-01-05T23:06:20.984Z,97784.06
2023-01-05T23:08:48.696Z,97784.06
2023-01-05T23:11:16.552Z,97783.34
2023-01-05T23:13:43.216Z,97786.09
2023-01-05T23:16:10.104Z,97790.16
2023-01-05T23:18:37.248Z,97790.28
2023-01-05T23:21:05.960Z,97782.03
2023-01-05T23:23:32.860Z,97782.03
2023-01-05T23:25:59.451Z,97777.97
2023-01-05T23:28:26.805Z,97775.22
2023-01-05T23:30:54.341Z,97773.78
2023-01-05T23:33:21.533Z,97771.75
2023-01-05T23:35:49.858Z,97766.97
2023-01-05T23:38:16.508Z,97773.06
2023-01-05T23:40:43.531Z,97766.97
2023-01-05T23:43:14.244Z,97766.25
2023-01-05T23:45:43.015Z,97762.78
2023-01-05T23:48:09.946Z,97756.56
2023-01-05T23:50:49.912Z,97748.31
2023-01-05T23:53:17.893Z,97754.41
2023-01-05T23:55:44.516Z,97750.22
2023-01-05T23:58:11.219Z,97751.66
